Check out our new PWSWeather beta!
PWSweather.com
Personal Weather Stations
Station Observations
METEOC500
Santo Antonio, FunchalPT 2020

Santo AntonioFunchalPT 2020

Lat: 32.678227, Lon: -16.945054

Elevation: 1669.94751

Station Type: WH Series

High Low Average
Temperature 70.0°F21.1°C 59.4°F15.2°C 63.3°F17.4°C
Dew Point 60.8°F16.0°C 52.7°F11.5°C 57.3°F14.1°C
Winds 7.6 mph 12.2 kmh Calm Calm 3.0 mph WSW4.8 kmh WSW
Wind Gusts 15.0 mph24.1 kmh 2.5 mph4.0 kmh 8.0 mph12.9 kmh
Humidity 86% 71% 81%
Pressure 30.29 in1025.7 mb 30.22 in1023.4 mb -
Precipitation 0.00 in0.0 mm - -
Hour Temp Dew Point Humidity Winds Wind Gusts Pressure Precip Precip Rate Daily Precip Total
12:10 AM 61.7°F16.5°C 57.4°F14.1°C 86% 2.2 mph NNW3.5 kmh NNW 7.6 mph12.2 kmh 30.27 in1025.1 mb 0.00 in0.0 mm 0.00 in0.0 mm 0.00 in0.0 mm
12:25 AM 61.5°F16.4°C 57.0°F13.9°C 85% 3.4 mph NNW5.5 kmh NNW 4.9 mph7.9 kmh 30.27 in1025.1 mb 0.00 in0.0 mm 0.00 in0.0 mm 0.00 in0.0 mm
12:40 AM 61.3°F16.3°C 56.5°F13.6°C 84% 4.0 mph N6.4 kmh N 7.6 mph12.2 kmh 30.27 in1025.1 mb 0.00 in0.0 mm 0.00 in0.0 mm 0.00 in0.0 mm
12:55 AM 61.5°F16.4°C 56.7°F13.7°C 84% 3.4 mph NW5.5 kmh NW 7.6 mph12.2 kmh 30.27 in1025.1 mb 0.00 in0.0 mm 0.00 in0.0 mm 0.00 in0.0 mm
01:10 AM 61.7°F16.5°C 56.8°F13.8°C 84% 2.9 mph NNW4.7 kmh NNW 4.9 mph7.9 kmh 30.27 in1025.1 mb 0.00 in0.0 mm 0.00 in0.0 mm 0.00 in0.0 mm
01:25 AM 61.7°F16.5°C 56.8°F13.8°C 84% 2.9 mph NNW4.7 kmh NNW 4.9 mph7.9 kmh 30.27 in1025.1 mb 0.00 in0.0 mm 0.00 in0.0 mm 0.00 in0.0 mm
01:40 AM 61.7°F16.5°C 56.8°F13.8°C 84% 0.2 mph NW0.3 kmh NW 4.9 mph7.9 kmh 30.27 in1025.1 mb 0.00 in0.0 mm 0.00 in0.0 mm 0.00 in0.0 mm
01:55 AM 61.9°F16.6°C 57.0°F13.9°C 84% Calm Calm 2.5 mph4.0 kmh 30.27 in1025.1 mb 0.00 in0.0 mm 0.00 in0.0 mm 0.00 in0.0 mm
02:10 AM 61.9°F16.6°C 57.4°F14.1°C 85% 0.2 mph NNW0.3 kmh NNW 2.5 mph4.0 kmh 30.27 in1025.1 mb 0.00 in0.0 mm 0.00 in0.0 mm 0.00 in0.0 mm
02:25 AM 61.9°F16.6°C 57.4°F14.1°C 85% Calm Calm 4.9 mph7.9 kmh 30.26 in1024.7 mb 0.00 in0.0 mm 0.00 in0.0 mm 0.00 in0.0 mm
02:40 AM 61.5°F16.4°C 57.4°F14.1°C 86% 1.8 mph NW2.9 kmh NW 4.9 mph7.9 kmh 30.27 in1025.1 mb 0.00 in0.0 mm 0.00 in0.0 mm 0.00 in0.0 mm
02:55 AM 61.2°F16.2°C 56.7°F13.7°C 85% 2.9 mph NNW4.7 kmh NNW 4.9 mph7.9 kmh 30.26 in1024.7 mb 0.00 in0.0 mm 0.00 in0.0 mm 0.00 in0.0 mm
03:10 AM 61.2°F16.2°C 56.3°F13.5°C 84% 2.5 mph NNW4.0 kmh NNW 7.6 mph12.2 kmh 30.26 in1024.7 mb 0.00 in0.0 mm 0.00 in0.0 mm 0.00 in0.0 mm
03:25 AM 61.0°F16.1°C 56.5°F13.6°C 85% 3.8 mph NNW6.1 kmh NNW 7.6 mph12.2 kmh 30.25 in1024.4 mb 0.00 in0.0 mm 0.00 in0.0 mm 0.00 in0.0 mm
03:40 AM 60.6°F15.9°C 55.8°F13.2°C 84% 3.4 mph NNW5.5 kmh NNW 4.9 mph7.9 kmh 30.25 in1024.4 mb 0.00 in0.0 mm 0.00 in0.0 mm 0.00 in0.0 mm
03:55 AM 60.4°F15.8°C 55.6°F13.1°C 84% 5.4 mph NNW8.7 kmh NNW 7.6 mph12.2 kmh 30.25 in1024.4 mb 0.00 in0.0 mm 0.00 in0.0 mm 0.00 in0.0 mm
04:10 AM 60.3°F15.7°C 55.4°F13.0°C 84% 4.7 mph NNW7.6 kmh NNW 7.6 mph12.2 kmh 30.25 in1024.4 mb 0.00 in0.0 mm 0.00 in0.0 mm 0.00 in0.0 mm
04:25 AM 60.1°F15.6°C 55.2°F12.9°C 84% 4.5 mph N7.2 kmh N 10.1 mph16.3 kmh 30.25 in1024.4 mb 0.00 in0.0 mm 0.00 in0.0 mm 0.00 in0.0 mm
04:40 AM 59.7°F15.4°C 54.9°F12.7°C 84% 6.0 mph N9.7 kmh N 10.1 mph16.3 kmh 30.25 in1024.4 mb 0.00 in0.0 mm 0.00 in0.0 mm 0.00 in0.0 mm
04:55 AM 59.5°F15.3°C 54.7°F12.6°C 84% 5.4 mph N8.7 kmh N 10.1 mph16.3 kmh 30.25 in1024.4 mb 0.00 in0.0 mm 0.00 in0.0 mm 0.00 in0.0 mm
05:10 AM 59.5°F15.3°C 54.7°F12.6°C 84% 6.0 mph NNW9.7 kmh NNW 10.1 mph16.3 kmh 30.25 in1024.4 mb 0.00 in0.0 mm 0.00 in0.0 mm 0.00 in0.0 mm
05:25 AM 59.5°F15.3°C 54.3°F12.4°C 83% 5.4 mph NW8.7 kmh NW 10.1 mph16.3 kmh 30.25 in1024.4 mb 0.00 in0.0 mm 0.00 in0.0 mm 0.00 in0.0 mm
05:40 AM 59.5°F15.3°C 54.3°F12.4°C 83% 6.5 mph NNW10.5 kmh NNW 10.1 mph16.3 kmh 30.26 in1024.7 mb 0.00 in0.0 mm 0.00 in0.0 mm 0.00 in0.0 mm
05:55 AM 59.5°F15.3°C 54.3°F12.4°C 83% 6.3 mph N10.1 kmh N 10.1 mph16.3 kmh 30.26 in1024.7 mb 0.00 in0.0 mm 0.00 in0.0 mm 0.00 in0.0 mm
06:10 AM 59.4°F15.2°C 54.1°F12.3°C 83% 4.9 mph N7.9 kmh N 10.1 mph16.3 kmh 30.25 in1024.4 mb 0.00 in0.0 mm 0.00 in0.0 mm 0.00 in0.0 mm
06:25 AM 59.4°F15.2°C 54.1°F12.3°C 83% 4.0 mph NNW6.4 kmh NNW 10.1 mph16.3 kmh 30.27 in1025.1 mb 0.00 in0.0 mm 0.00 in0.0 mm 0.00 in0.0 mm
06:40 AM 59.4°F15.2°C 54.5°F12.5°C 84% 5.4 mph N8.7 kmh N 10.1 mph16.3 kmh 30.27 in1025.1 mb 0.00 in0.0 mm 0.00 in0.0 mm 0.00 in0.0 mm
06:55 AM 59.4°F15.2°C 54.5°F12.5°C 84% 3.4 mph N5.5 kmh N 7.6 mph12.2 kmh 30.27 in1025.1 mb 0.00 in0.0 mm 0.00 in0.0 mm 0.00 in0.0 mm
07:10 AM 59.5°F15.3°C 54.7°F12.6°C 84% 2.9 mph NNW4.7 kmh NNW 10.1 mph16.3 kmh 30.27 in1025.1 mb 0.00 in0.0 mm 0.00 in0.0 mm 0.00 in0.0 mm
07:25 AM 59.9°F15.5°C 55.0°F12.8°C 84% 3.4 mph NNW5.5 kmh NNW 10.1 mph16.3 kmh 30.27 in1025.1 mb 0.00 in0.0 mm 0.00 in0.0 mm 0.00 in0.0 mm
07:40 AM 60.3°F15.7°C 55.8°F13.2°C 85% 4.7 mph NW7.6 kmh NW 7.6 mph12.2 kmh 30.27 in1025.1 mb 0.00 in0.0 mm 0.00 in0.0 mm 0.00 in0.0 mm
07:55 AM 60.3°F15.7°C 55.8°F13.2°C 85% 4.9 mph N7.9 kmh N 7.6 mph12.2 kmh 30.28 in1025.4 mb 0.00 in0.0 mm 0.00 in0.0 mm 0.00 in0.0 mm
08:10 AM 60.4°F15.8°C 55.6°F13.1°C 84% 6.5 mph N10.5 kmh N 7.6 mph12.2 kmh 30.27 in1025.1 mb 0.00 in0.0 mm 0.00 in0.0 mm 0.00 in0.0 mm
08:25 AM 61.0°F16.1°C 56.1°F13.4°C 84% 3.1 mph NNW5.0 kmh NNW 10.1 mph16.3 kmh 30.28 in1025.4 mb 0.00 in0.0 mm 0.00 in0.0 mm 0.00 in0.0 mm
08:40 AM 61.9°F16.6°C 56.3°F13.5°C 82% 2.2 mph NNE3.5 kmh NNE 4.9 mph7.9 kmh 30.28 in1025.4 mb 0.00 in0.0 mm 0.00 in0.0 mm 0.00 in0.0 mm
08:55 AM 63.7°F17.6°C 56.3°F13.5°C 77% 1.8 mph S2.9 kmh S 4.9 mph7.9 kmh 30.28 in1025.4 mb 0.00 in0.0 mm 0.00 in0.0 mm 0.00 in0.0 mm
09:10 AM 65.1°F18.4°C 58.1°F14.5°C 78% 0.7 mph S1.1 kmh S 4.9 mph7.9 kmh 30.29 in1025.7 mb 0.00 in0.0 mm 0.00 in0.0 mm 0.00 in0.0 mm
09:25 AM 66.4°F19.1°C 57.0°F13.9°C 72% 1.6 mph SSW2.6 kmh SSW 7.6 mph12.2 kmh 30.29 in1025.7 mb 0.00 in0.0 mm 0.00 in0.0 mm 0.00 in0.0 mm
09:40 AM 66.9°F19.4°C 59.2°F15.1°C 76% 4.7 mph SE7.6 kmh SE 7.6 mph12.2 kmh 30.29 in1025.7 mb 0.00 in0.0 mm 0.00 in0.0 mm 0.00 in0.0 mm
09:55 AM 66.2°F19.0°C 58.8°F14.9°C 77% 2.9 mph SE4.7 kmh SE 7.6 mph12.2 kmh 30.29 in1025.7 mb 0.00 in0.0 mm 0.00 in0.0 mm 0.00 in0.0 mm
10:10 AM 65.5°F18.6°C 58.5°F14.7°C 78% Calm Calm 4.9 mph7.9 kmh 30.29 in1025.7 mb 0.00 in0.0 mm 0.00 in0.0 mm 0.00 in0.0 mm
10:25 AM 65.1°F18.4°C 58.1°F14.5°C 78% Calm Calm 2.5 mph4.0 kmh 30.29 in1025.7 mb 0.00 in0.0 mm 0.00 in0.0 mm 0.00 in0.0 mm
10:40 AM 65.5°F18.6°C 58.5°F14.7°C 78% Calm Calm 4.9 mph7.9 kmh 30.29 in1025.7 mb 0.00 in0.0 mm 0.00 in0.0 mm 0.00 in0.0 mm
10:55 AM 65.5°F18.6°C 58.5°F14.7°C 78% 4.5 mph SE7.2 kmh SE 4.9 mph7.9 kmh 30.29 in1025.7 mb 0.00 in0.0 mm 0.00 in0.0 mm 0.00 in0.0 mm
11:10 AM 65.8°F18.8°C 59.2°F15.1°C 79% 3.1 mph E5.0 kmh E 7.6 mph12.2 kmh 30.29 in1025.7 mb 0.00 in0.0 mm 0.00 in0.0 mm 0.00 in0.0 mm
11:25 AM 66.6°F19.2°C 59.5°F15.3°C 78% 3.1 mph S5.0 kmh S 7.6 mph12.2 kmh 30.28 in1025.4 mb 0.00 in0.0 mm 0.00 in0.0 mm 0.00 in0.0 mm
11:40 AM 66.6°F19.2°C 59.5°F15.3°C 78% 2.9 mph SE4.7 kmh SE 7.6 mph12.2 kmh 30.28 in1025.4 mb 0.00 in0.0 mm 0.00 in0.0 mm 0.00 in0.0 mm
11:55 AM 66.4°F19.1°C 59.4°F15.2°C 78% 1.3 mph SSW2.1 kmh SSW 7.6 mph12.2 kmh 30.27 in1025.1 mb 0.00 in0.0 mm 0.00 in0.0 mm 0.00 in0.0 mm
12:10 PM 66.6°F19.2°C 59.2°F15.1°C 77% 2.5 mph SSW4.0 kmh SSW 7.6 mph12.2 kmh 30.28 in1025.4 mb 0.00 in0.0 mm 0.00 in0.0 mm 0.00 in0.0 mm
12:25 PM 66.4°F19.1°C 59.0°F15.0°C 77% 1.6 mph SE2.6 kmh SE 7.6 mph12.2 kmh 30.28 in1025.4 mb 0.00 in0.0 mm 0.00 in0.0 mm 0.00 in0.0 mm
12:40 PM 66.2°F19.0°C 58.8°F14.9°C 77% 1.3 mph S2.1 kmh S 7.6 mph12.2 kmh 30.27 in1025.1 mb 0.00 in0.0 mm 0.00 in0.0 mm 0.00 in0.0 mm
12:55 PM 65.8°F18.8°C 58.8°F14.9°C 78% 1.6 mph E2.6 kmh E 7.6 mph12.2 kmh 30.26 in1024.7 mb 0.00 in0.0 mm 0.00 in0.0 mm 0.00 in0.0 mm
01:10 PM 66.0°F18.9°C 58.6°F14.8°C 77% 2.5 mph S4.0 kmh S 4.9 mph7.9 kmh 30.25 in1024.4 mb 0.00 in0.0 mm 0.00 in0.0 mm 0.00 in0.0 mm
01:25 PM 66.0°F18.9°C 59.4°F15.2°C 79% 1.6 mph S2.6 kmh S 4.9 mph7.9 kmh 30.25 in1024.4 mb 0.00 in0.0 mm 0.00 in0.0 mm 0.00 in0.0 mm
01:40 PM 65.8°F18.8°C 59.2°F15.1°C 79% Calm Calm 7.6 mph12.2 kmh 30.24 in1024.0 mb 0.00 in0.0 mm 0.00 in0.0 mm 0.00 in0.0 mm
01:55 PM 66.2°F19.0°C 58.8°F14.9°C 77% 2.9 mph SE4.7 kmh SE 10.1 mph16.3 kmh 30.23 in1023.7 mb 0.00 in0.0 mm 0.00 in0.0 mm 0.00 in0.0 mm
02:10 PM 67.8°F19.9°C 58.8°F14.9°C 73% 4.9 mph SE7.9 kmh SE 15.0 mph24.1 kmh 30.22 in1023.4 mb 0.00 in0.0 mm 0.00 in0.0 mm 0.00 in0.0 mm
02:25 PM 69.3°F20.7°C 59.5°F15.3°C 71% 5.4 mph SW8.7 kmh SW 10.1 mph16.3 kmh 30.22 in1023.4 mb 0.00 in0.0 mm 0.00 in0.0 mm 0.00 in0.0 mm
02:40 PM 69.6°F20.9°C 60.3°F15.7°C 72% 3.1 mph S5.0 kmh S 12.5 mph20.1 kmh 30.22 in1023.4 mb 0.00 in0.0 mm 0.00 in0.0 mm 0.00 in0.0 mm
02:55 PM 70.0°F21.1°C 60.1°F15.6°C 71% 4.5 mph SSW7.2 kmh SSW 12.5 mph20.1 kmh 30.22 in1023.4 mb 0.00 in0.0 mm 0.00 in0.0 mm 0.00 in0.0 mm
03:11 PM 69.8°F21.0°C 60.8°F16.0°C 73% 4.5 mph S7.2 kmh S 10.1 mph16.3 kmh 30.22 in1023.4 mb 0.00 in0.0 mm 0.00 in0.0 mm 0.00 in0.0 mm
03:26 PM 68.7°F20.4°C 60.4°F15.8°C 75% 3.4 mph SSW5.5 kmh SSW 7.6 mph12.2 kmh 30.22 in1023.4 mb 0.00 in0.0 mm 0.00 in0.0 mm 0.00 in0.0 mm
03:41 PM 67.6°F19.8°C 60.3°F15.7°C 77% 4.9 mph SSW7.9 kmh SSW 10.1 mph16.3 kmh 30.22 in1023.4 mb 0.00 in0.0 mm 0.00 in0.0 mm 0.00 in0.0 mm
03:56 PM 66.9°F19.4°C 59.5°F15.3°C 77% 0.9 mph SW1.4 kmh SW 7.6 mph12.2 kmh 30.23 in1023.7 mb 0.00 in0.0 mm 0.00 in0.0 mm 0.00 in0.0 mm
04:11 PM 67.1°F19.5°C 59.4°F15.2°C 76% Calm Calm 12.5 mph20.1 kmh 30.23 in1023.7 mb 0.00 in0.0 mm 0.00 in0.0 mm 0.00 in0.0 mm
04:26 PM 66.9°F19.4°C 59.5°F15.3°C 77% 4.0 mph S6.4 kmh S 7.6 mph12.2 kmh 30.23 in1023.7 mb 0.00 in0.0 mm 0.00 in0.0 mm 0.00 in0.0 mm
04:41 PM 66.4°F19.1°C 59.4°F15.2°C 78% 3.1 mph SSW5.0 kmh SSW 7.6 mph12.2 kmh 30.22 in1023.4 mb 0.00 in0.0 mm 0.00 in0.0 mm 0.00 in0.0 mm
04:56 PM 65.8°F18.8°C 59.5°F15.3°C 80% 1.8 mph SW2.9 kmh SW 7.6 mph12.2 kmh 30.23 in1023.7 mb 0.00 in0.0 mm 0.00 in0.0 mm 0.00 in0.0 mm
05:11 PM 65.5°F18.6°C 59.5°F15.3°C 81% 2.5 mph SSE4.0 kmh SSE 7.6 mph12.2 kmh 30.23 in1023.7 mb 0.00 in0.0 mm 0.00 in0.0 mm 0.00 in0.0 mm
05:26 PM 65.1°F18.4°C 59.2°F15.1°C 81% 1.8 mph SSW2.9 kmh SSW 10.1 mph16.3 kmh 30.23 in1023.7 mb 0.00 in0.0 mm 0.00 in0.0 mm 0.00 in0.0 mm
05:41 PM 64.9°F18.3°C 58.6°F14.8°C 80% 3.4 mph SE5.5 kmh SE 7.6 mph12.2 kmh 30.24 in1024.0 mb 0.00 in0.0 mm 0.00 in0.0 mm 0.00 in0.0 mm
05:56 PM 64.6°F18.1°C 58.6°F14.8°C 81% 3.4 mph S5.5 kmh S 7.6 mph12.2 kmh 30.24 in1024.0 mb 0.00 in0.0 mm 0.00 in0.0 mm 0.00 in0.0 mm
06:11 PM 64.2°F17.9°C 58.6°F14.8°C 82% 1.8 mph SSW2.9 kmh SSW 7.6 mph12.2 kmh 30.24 in1024.0 mb 0.00 in0.0 mm 0.00 in0.0 mm 0.00 in0.0 mm
06:26 PM 63.9°F17.7°C 59.0°F15.0°C 84% 2.5 mph SSE4.0 kmh SSE 7.6 mph12.2 kmh 30.25 in1024.4 mb 0.00 in0.0 mm 0.00 in0.0 mm 0.00 in0.0 mm
06:41 PM 63.5°F17.5°C 58.6°F14.8°C 84% 2.5 mph SSW4.0 kmh SSW 7.6 mph12.2 kmh 30.24 in1024.0 mb 0.00 in0.0 mm 0.00 in0.0 mm 0.00 in0.0 mm
06:56 PM 63.1°F17.3°C 58.3°F14.6°C 84% Calm Calm 4.9 mph7.9 kmh 30.25 in1024.4 mb 0.00 in0.0 mm 0.00 in0.0 mm 0.00 in0.0 mm
07:11 PM 63.0°F17.2°C 58.1°F14.5°C 84% 0.2 mph ENE0.3 kmh ENE 4.9 mph7.9 kmh 30.25 in1024.4 mb 0.00 in0.0 mm 0.00 in0.0 mm 0.00 in0.0 mm
07:26 PM 63.0°F17.2°C 58.5°F14.7°C 85% Calm Calm 4.9 mph7.9 kmh 30.26 in1024.7 mb 0.00 in0.0 mm 0.00 in0.0 mm 0.00 in0.0 mm
07:41 PM 63.1°F17.3°C 58.6°F14.8°C 85% Calm Calm 7.6 mph12.2 kmh 30.26 in1024.7 mb 0.00 in0.0 mm 0.00 in0.0 mm 0.00 in0.0 mm
07:56 PM 63.0°F17.2°C 58.5°F14.7°C 85% 0.7 mph NW1.1 kmh NW 10.1 mph16.3 kmh 30.26 in1024.7 mb 0.00 in0.0 mm 0.00 in0.0 mm 0.00 in0.0 mm
08:11 PM 62.6°F17.0°C 58.1°F14.5°C 85% Calm Calm 4.9 mph7.9 kmh 30.27 in1025.1 mb 0.00 in0.0 mm 0.00 in0.0 mm 0.00 in0.0 mm
08:26 PM 62.4°F16.9°C 56.8°F13.8°C 82% 2.2 mph SW3.5 kmh SW 7.6 mph12.2 kmh 30.27 in1025.1 mb 0.00 in0.0 mm 0.00 in0.0 mm 0.00 in0.0 mm
08:41 PM 62.6°F17.0°C 56.7°F13.7°C 81% 2.9 mph NNW4.7 kmh NNW 4.9 mph7.9 kmh 30.28 in1025.4 mb 0.00 in0.0 mm 0.00 in0.0 mm 0.00 in0.0 mm
08:56 PM 62.8°F17.1°C 56.8°F13.8°C 81% 3.8 mph NW6.1 kmh NW 10.1 mph16.3 kmh 30.28 in1025.4 mb 0.00 in0.0 mm 0.00 in0.0 mm 0.00 in0.0 mm
09:11 PM 62.2°F16.8°C 56.3°F13.5°C 81% 7.6 mph NNW12.2 kmh NNW 10.1 mph16.3 kmh 30.28 in1025.4 mb 0.00 in0.0 mm 0.00 in0.0 mm 0.00 in0.0 mm
09:26 PM 61.7°F16.5°C 56.5°F13.6°C 83% 2.9 mph NW4.7 kmh NW 7.6 mph12.2 kmh 30.29 in1025.7 mb 0.00 in0.0 mm 0.00 in0.0 mm 0.00 in0.0 mm
09:41 PM 61.9°F16.6°C 52.7°F11.5°C 72% 4.7 mph N7.6 kmh N 15.0 mph24.1 kmh 30.28 in1025.4 mb 0.00 in0.0 mm 0.00 in0.0 mm 0.00 in0.0 mm
09:56 PM 62.4°F16.9°C 56.5°F13.6°C 81% 3.4 mph SE5.5 kmh SE 10.1 mph16.3 kmh 30.28 in1025.4 mb 0.00 in0.0 mm 0.00 in0.0 mm 0.00 in0.0 mm
10:11 PM 62.2°F16.8°C 56.3°F13.5°C 81% 6.0 mph N9.7 kmh N 7.6 mph12.2 kmh 30.29 in1025.7 mb 0.00 in0.0 mm 0.00 in0.0 mm 0.00 in0.0 mm
10:26 PM 61.5°F16.4°C 55.9°F13.3°C 82% 6.0 mph NW9.7 kmh NW 7.6 mph12.2 kmh 30.28 in1025.4 mb 0.00 in0.0 mm 0.00 in0.0 mm 0.00 in0.0 mm
10:41 PM 61.2°F16.2°C 56.3°F13.5°C 84% 3.8 mph NNW6.1 kmh NNW 10.1 mph16.3 kmh 30.29 in1025.7 mb 0.00 in0.0 mm 0.00 in0.0 mm 0.00 in0.0 mm
10:56 PM 61.3°F16.3°C 56.1°F13.4°C 83% 2.5 mph N4.0 kmh N 7.6 mph12.2 kmh 30.28 in1025.4 mb 0.00 in0.0 mm 0.00 in0.0 mm 0.00 in0.0 mm
11:11 PM 61.2°F16.2°C 55.9°F13.3°C 83% 1.8 mph NW2.9 kmh NW 10.1 mph16.3 kmh 30.29 in1025.7 mb 0.00 in0.0 mm 0.00 in0.0 mm 0.00 in0.0 mm
11:26 PM 61.3°F16.3°C 55.8°F13.2°C 82% 3.4 mph N5.5 kmh N 10.1 mph16.3 kmh 30.28 in1025.4 mb 0.00 in0.0 mm 0.00 in0.0 mm 0.00 in0.0 mm
11:41 PM 61.5°F16.4°C 55.9°F13.3°C 82% 5.4 mph NNW8.7 kmh NNW 7.6 mph12.2 kmh 30.28 in1025.4 mb 0.00 in0.0 mm 0.00 in0.0 mm 0.00 in0.0 mm
11:56 PM 61.2°F16.2°C 55.9°F13.3°C 83% 4.5 mph NNW7.2 kmh NNW 10.1 mph16.3 kmh 30.28 in1025.4 mb 0.00 in0.0 mm 0.00 in0.0 mm 0.00 in0.0 mm